Time,TemperatureF,DewpointF,PressureIn,WindDirection,WindDirectionDegrees,WindSpeedMPH,WindSpeedGustMPH,Humidity,HourlyPrecipIn,Conditions,Clouds,dailyrainin,SolarRadiationWatts/m^2,SoftwareType,DateUTC
2013-01-25 00:03:00,41.0,41.0,-100.00,NE,44,7.0,10.0,100,0.00,,,0.33,0.000000,,2013-01-25 05:03:00,
2013-01-25 00:12:00,41.0,41.0,-100.00,NE,44,7.0,10.0,100,0.00,,,0.33,0.000000,,2013-01-25 05:12:00,
2013-01-25 00:22:00,41.0,41.0,-100.00,NE,44,7.0,10.0,100,0.00,,,0.33,0.000000,,2013-01-25 05:22:00,
2013-01-25 00:52:00,43.0,43.0,-100.00,East,94,7.0,9.0,100,0.00,,,0.32,0.000000,,2013-01-25 05:52:00,
2013-01-25 01:02:00,43.0,43.0,-100.00,East,94,7.0,9.0,100,0.00,,,0.32,0.000000,,2013-01-25 06:02:00,
2013-01-25 01:11:00,43.0,43.0,-100.00,East,94,7.0,9.0,100,0.00,,,0.32,0.000000,,2013-01-25 06:11:00,
2013-01-25 01:21:00,43.0,43.0,-100.00,East,94,7.0,9.0,100,0.00,,,0.32,0.000000,,2013-01-25 06:21:00,
2013-01-25 01:52:00,43.0,43.0,-100.00,NE,45,6.0,9.0,100,0.00,,,0.32,0.000000,,2013-01-25 06:52:00,
2013-01-25 02:02:00,43.0,43.0,-100.00,NE,45,6.0,9.0,100,0.00,,,0.32,0.000000,,2013-01-25 07:02:00,
2013-01-25 02:11:00,43.0,43.0,-100.00,NE,45,6.0,9.0,100,0.00,,,0.32,0.000000,,2013-01-25 07:11:00,
2013-01-25 02:21:00,43.0,43.0,-100.00,NE,45,6.0,9.0,100,0.00,,,0.32,0.000000,,2013-01-25 07:21:00,
2013-01-25 02:52:00,43.0,43.0,-100.00,NE,49,0.0,7.0,100,0.00,,,0.31,0.000000,,2013-01-25 07:52:00,
2013-01-25 03:01:00,43.0,43.0,-100.00,NE,49,0.0,7.0,100,0.00,,,0.31,0.000000,,2013-01-25 08:01:00,
2013-01-25 03:11:00,43.0,43.0,-100.00,NE,49,0.0,7.0,100,0.00,,,0.31,0.000000,,2013-01-25 08:11:00,
2013-01-25 03:21:00,43.0,43.0,-100.00,NE,49,0.0,7.0,100,0.00,,,0.31,0.000000,,2013-01-25 08:21:00,
2013-01-25 03:52:00,43.0,43.0,-100.00,NE,48,2.0,5.0,100,0.00,,,0.30,0.000000,,2013-01-25 08:52:00,
2013-01-25 04:01:00,43.0,43.0,-100.00,NE,48,2.0,5.0,100,0.00,,,0.30,0.000000,,2013-01-25 09:01:00,
2013-01-25 04:11:00,43.0,43.0,-100.00,NE,48,2.0,5.0,100,0.00,,,0.30,0.000000,,2013-01-25 09:11:00,
2013-01-25 04:21:00,43.0,43.0,-100.00,NE,48,2.0,5.0,100,0.00,,,0.30,0.000000,,2013-01-25 09:21:00,
2013-01-25 04:52:00,41.0,41.0,-100.00,SSE,165,4.0,9.0,100,0.00,,,0.30,0.000000,,2013-01-25 09:52:00,
2013-01-25 05:01:00,41.0,41.0,-100.00,SSE,165,4.0,9.0,100,0.00,,,0.30,0.000000,,2013-01-25 10:01:00,
2013-01-25 05:11:00,41.0,41.0,-100.00,SSE,165,4.0,9.0,100,0.00,,,0.30,0.000000,,2013-01-25 10:11:00,
2013-01-25 05:21:00,41.0,41.0,-100.00,SSE,165,4.0,9.0,100,0.00,,,0.30,0.000000,,2013-01-25 10:21:00,
2013-01-25 05:52:00,41.0,41.0,-100.00,SSE,153,1.0,5.0,100,0.00,,,0.30,0.000000,,2013-01-25 10:52:00,
2013-01-25 06:02:00,41.0,41.0,-100.00,SSE,153,1.0,5.0,100,0.00,,,0.30,0.000000,,2013-01-25 11:02:00,
2013-01-25 06:11:00,41.0,41.0,-100.00,SSE,153,1.0,5.0,100,0.00,,,0.30,0.000000,,2013-01-25 11:11:00,
2013-01-25 06:21:00,41.0,41.0,-100.00,SSE,153,1.0,5.0,100,0.00,,,0.30,0.000000,,2013-01-25 11:21:00,
2013-01-25 06:52:00,43.0,43.0,-100.00,NNE,33,0.0,3.0,100,0.00,,,0.23,0.000000,,2013-01-25 11:52:00,
2013-01-25 07:02:00,43.0,43.0,-100.00,NNE,33,0.0,3.0,100,0.00,,,0.23,0.000000,,2013-01-25 12:02:00,
2013-01-25 07:11:00,43.0,43.0,-100.00,NNE,33,0.0,3.0,100,0.00,,,0.23,0.000000,,2013-01-25 12:11:00,
2013-01-25 07:21:00,43.0,43.0,-100.00,NNE,33,0.0,3.0,100,0.00,,,0.23,0.000000,,2013-01-25 12:21:00,
2013-01-25 07:53:00,41.0,41.0,-100.00,South,173,2.0,5.0,100,0.00,,,0.18,0.000000,,2013-01-25 12:53:00,
2013-01-25 08:02:00,41.0,41.0,-100.00,South,173,2.0,5.0,100,0.00,,,0.18,0.000000,,2013-01-25 13:02:00,
2013-01-25 08:11:00,41.0,41.0,-100.00,South,173,2.0,5.0,100,0.00,,,0.18,0.000000,,2013-01-25 13:11:00,
2013-01-25 08:21:00,41.0,41.0,-100.00,South,173,2.0,5.0,100,0.00,,,0.18,0.000000,,2013-01-25 13:21:00,
2013-01-25 08:53:00,41.0,41.0,-100.00,NE,46,0.0,4.0,100,0.00,,,0.17,0.000000,,2013-01-25 13:53:00,
2013-01-25 09:02:00,41.0,41.0,-100.00,NE,46,0.0,4.0,100,0.00,,,0.17,0.000000,,2013-01-25 14:02:00,
2013-01-25 09:12:00,41.0,41.0,-100.00,NE,46,0.0,4.0,100,0.00,,,0.17,0.000000,,2013-01-25 14:12:00,
2013-01-25 09:22:00,41.0,41.0,-100.00,NE,46,0.0,4.0,100,0.00,,,0.17,0.000000,,2013-01-25 14:22:00,
2013-01-25 09:53:00,41.0,41.0,-100.00,NNE,33,2.0,5.0,100,0.00,,,0.15,0.000000,,2013-01-25 14:53:00,
2013-01-25 10:02:00,41.0,41.0,-100.00,NNE,33,2.0,5.0,100,0.00,,,0.15,0.000000,,2013-01-25 15:02:00,
2013-01-25 10:12:00,41.0,41.0,-100.00,NNE,33,2.0,5.0,100,0.00,,,0.15,0.000000,,2013-01-25 15:12:00,
2013-01-25 10:22:00,41.0,41.0,-100.00,NNE,33,2.0,5.0,100,0.00,,,0.15,0.000000,,2013-01-25 15:22:00,
2013-01-25 10:53:00,41.0,41.0,-100.00,SE,126,8.0,12.0,100,0.00,,,0.13,2.000000,,2013-01-25 15:53:00,
2013-01-25 11:03:00,41.0,41.0,-100.00,SE,126,8.0,12.0,100,0.00,,,0.13,2.000000,,2013-01-25 16:03:00,
2013-01-25 11:11:00,41.0,41.0,-100.00,SE,126,8.0,12.0,100,0.00,,,0.13,2.000000,,2013-01-25 16:11:00,
2013-01-25 11:22:00,41.0,41.0,-100.00,SE,126,8.0,12.0,100,0.00,,,0.13,2.000000,,2013-01-25 16:22:00,
2013-01-25 11:53:00,43.0,43.0,-100.00,SE,137,5.0,11.0,100,0.00,,,0.10,23.000000,,2013-01-25 16:53:00,
2013-01-25 12:02:00,43.0,43.0,-100.00,SE,137,5.0,11.0,100,0.00,,,0.10,23.000000,,2013-01-25 17:02:00,
2013-01-25 12:11:00,43.0,43.0,-100.00,SE,137,5.0,11.0,100,0.00,,,0.10,23.000000,,2013-01-25 17:11:00,
2013-01-25 12:22:00,43.0,43.0,-100.00,SE,137,5.0,11.0,100,0.00,,,0.10,23.000000,,2013-01-25 17:22:00,
2013-01-25 12:53:00,44.0,44.0,-100.00,SSE,152,5.0,8.0,100,0.00,,,0.07,67.000000,,2013-01-25 17:53:00,
2013-01-25 13:02:00,44.0,44.0,-100.00,SSE,152,5.0,8.0,100,0.00,,,0.07,67.000000,,2013-01-25 18:02:00,
2013-01-25 13:11:00,44.0,44.0,-100.00,SSE,152,5.0,8.0,100,0.00,,,0.07,67.000000,,2013-01-25 18:11:00,
2013-01-25 13:23:00,44.0,44.0,-100.00,SSE,152,5.0,8.0,100,0.00,,,0.07,67.000000,,2013-01-25 18:23:00,
2013-01-25 13:52:00,44.0,44.0,-100.00,NE,54,7.0,11.0,99,0.00,,,0.03,100.000000,,2013-01-25 18:52:00,
2013-01-25 14:02:00,44.0,44.0,-100.00,NE,54,7.0,11.0,99,0.00,,,0.03,100.000000,,2013-01-25 19:02:00,
2013-01-25 14:12:00,44.0,44.0,-100.00,NE,54,7.0,11.0,99,0.00,,,0.03,100.000000,,2013-01-25 19:12:00,
2013-01-25 14:21:00,44.0,44.0,-100.00,NE,54,7.0,11.0,99,0.00,,,0.03,100.000000,,2013-01-25 19:21:00,
2013-01-25 14:53:00,43.0,42.0,-100.00,East,95,9.0,13.0,98,0.00,,,0.00,124.000000,,2013-01-25 19:53:00,
2013-01-25 15:02:00,43.0,42.0,-100.00,East,95,9.0,13.0,98,0.00,,,0.00,124.000000,,2013-01-25 20:02:00,
2013-01-25 15:12:00,43.0,42.0,-100.00,East,95,9.0,13.0,98,0.00,,,0.00,124.000000,,2013-01-25 20:12:00,
2013-01-25 15:22:00,43.0,42.0,-100.00,East,95,9.0,13.0,98,0.00,,,0.00,124.000000,,2013-01-25 20:22:00,
2013-01-25 15:52:00,45.0,44.0,-100.00,ESE,111,5.0,12.0,96,0.00,,,0.00,137.000000,,2013-01-25 20:52:00,
2013-01-25 16:02:00,45.0,44.0,-100.00,ESE,111,5.0,12.0,96,0.00,,,0.00,137.000000,,2013-01-25 21:02:00,
2013-01-25 16:11:00,45.0,44.0,-100.00,ESE,111,5.0,12.0,96,0.00,,,0.00,137.000000,,2013-01-25 21:11:00,
2013-01-25 16:22:00,45.0,44.0,-100.00,ESE,111,5.0,12.0,96,0.00,,,0.00,137.000000,,2013-01-25 21:22:00,
2013-01-25 16:52:00,45.0,42.0,-100.00,ESE,122,4.0,9.0,90,0.00,,,0.00,151.000000,,2013-01-25 21:52:00,
2013-01-25 17:02:00,45.0,42.0,-100.00,ESE,122,4.0,9.0,90,0.00,,,0.00,151.000000,,2013-01-25 22:02:00,
2013-01-25 17:11:00,45.0,42.0,-100.00,ESE,122,4.0,9.0,90,0.00,,,0.00,151.000000,,2013-01-25 22:11:00,
2013-01-25 17:22:00,45.0,42.0,-100.00,ESE,122,4.0,9.0,90,0.00,,,0.00,151.000000,,2013-01-25 22:22:00,
2013-01-25 17:52:00,45.0,42.0,-100.00,ESE,107,4.0,9.0,89,0.00,,,0.00,106.000000,,2013-01-25 22:52:00,
2013-01-25 18:02:00,45.0,42.0,-100.00,ESE,107,4.0,9.0,89,0.00,,,0.00,106.000000,,2013-01-25 23:02:00,
2013-01-25 18:11:00,45.0,42.0,-100.00,ESE,107,4.0,9.0,89,0.00,,,0.00,106.000000,,2013-01-25 23:11:00,
2013-01-25 18:22:00,45.0,42.0,-100.00,ESE,107,4.0,9.0,89,0.00,,,0.00,106.000000,,2013-01-25 23:22:00,
2013-01-25 18:52:00,45.0,42.0,-100.00,ENE,78,4.0,9.0,88,0.00,,,0.00,116.000000,,2013-01-25 23:52:00,
2013-01-25 19:01:00,45.0,42.0,-100.00,ENE,78,4.0,9.0,88,0.00,,,0.00,116.000000,,2013-01-26 00:01:00,
2013-01-25 19:11:00,45.0,42.0,-100.00,ENE,78,4.0,9.0,88,0.00,,,0.00,116.000000,,2013-01-26 00:11:00,
2013-01-25 19:22:00,45.0,42.0,-100.00,ENE,78,4.0,9.0,88,0.00,,,0.00,116.000000,,2013-01-26 00:22:00,
2013-01-25 19:53:00,45.0,42.0,-100.00,ESE,110,6.0,12.0,90,0.00,,,0.00,33.000000,,2013-01-26 00:53:00,
2013-01-25 20:01:00,45.0,42.0,-100.00,ESE,110,6.0,12.0,90,0.00,,,0.00,33.000000,,2013-01-26 01:01:00,
2013-01-25 20:11:00,45.0,42.0,-100.00,ESE,110,6.0,12.0,90,0.00,,,0.00,33.000000,,2013-01-26 01:11:00,
2013-01-25 20:22:00,45.0,42.0,-100.00,ESE,110,6.0,12.0,90,0.00,,,0.00,33.000000,,2013-01-26 01:22:00,
2013-01-25 20:52:00,43.0,42.0,-100.00,ESE,113,5.0,13.0,97,0.01,,,0.01,7.000000,,2013-01-26 01:52:00,
2013-01-25 21:01:00,43.0,42.0,-100.00,ESE,113,5.0,13.0,97,0.01,,,0.01,7.000000,,2013-01-26 02:01:00,
2013-01-25 21:11:00,43.0,42.0,-100.00,ESE,113,5.0,13.0,97,0.01,,,0.01,7.000000,,2013-01-26 02:11:00,
2013-01-25 21:22:00,43.0,42.0,-100.00,ESE,113,5.0,13.0,97,0.01,,,0.01,7.000000,,2013-01-26 02:22:00,
2013-01-25 21:52:00,42.0,40.0,-100.00,ENE,68,0.0,6.0,94,0.01,,,0.02,0.000000,,2013-01-26 02:52:00,
2013-01-25 22:01:00,42.0,40.0,-100.00,ENE,68,0.0,6.0,94,0.01,,,0.02,0.000000,,2013-01-26 03:01:00,
2013-01-25 22:11:00,42.0,40.0,-100.00,ENE,68,0.0,6.0,94,0.01,,,0.02,0.000000,,2013-01-26 03:11:00,
2013-01-25 22:21:00,42.0,40.0,-100.00,ENE,68,0.0,6.0,94,0.01,,,0.02,0.000000,,2013-01-26 03:21:00,
2013-01-25 22:52:00,42.0,41.0,-100.00,NE,51,0.0,6.0,96,0.00,,,0.02,0.000000,,2013-01-26 03:52:00,
2013-01-25 23:01:00,42.0,41.0,-100.00,NE,51,0.0,6.0,96,0.00,,,0.02,0.000000,,2013-01-26 04:01:00,
2013-01-25 23:12:00,42.0,41.0,-100.00,NE,51,0.0,6.0,96,0.00,,,0.02,0.000000,,2013-01-26 04:12:00,
2013-01-25 23:21:00,42.0,41.0,-100.00,NE,51,0.0,6.0,96,0.00,,,0.02,0.000000,,2013-01-26 04:21:00,
2013-01-25 23:52:00,42.0,41.0,-100.00,ENE,69,0.0,6.0,97,0.00,,,0.02,0.000000,,2013-01-26 04:52:00,